sensor_id;sensor_type;location;lat;lon;timestamp;temperature;humidity
59075;DHT22;44860;53.020;6.738;2023-02-08T00:01:53;-1.30;99.90
59075;DHT22;44860;53.020;6.738;2023-02-08T00:04:18;-1.30;99.90
59075;DHT22;44860;53.020;6.738;2023-02-08T00:06:44;-1.40;99.90
59075;DHT22;44860;53.020;6.738;2023-02-08T00:09:10;-1.40;99.90
59075;DHT22;44860;53.020;6.738;2023-02-08T00:11:36;-1.40;99.90
59075;DHT22;44860;53.020;6.738;2023-02-08T00:14:02;-1.40;99.90
59075;DHT22;44860;53.020;6.738;2023-02-08T00:16:28;-1.40;99.90
59075;DHT22;44860;53.020;6.738;2023-02-08T00:18:54;-1.50;99.90
59075;DHT22;44860;53.020;6.738;2023-02-08T00:21:21;-1.50;99.90
59075;DHT22;44860;53.020;6.738;2023-02-08T00:23:47;-1.40;99.90
59075;DHT22;44860;53.020;6.738;2023-02-08T00:26:13;-1.50;99.90
59075;DHT22;44860;53.020;6.738;2023-02-08T00:28:39;-1.50;99.90
59075;DHT22;44860;53.020;6.738;2023-02-08T00:31:05;-1.50;99.90
59075;DHT22;44860;53.020;6.738;2023-02-08T00:33:31;-1.50;99.90
59075;DHT22;44860;53.020;6.738;2023-02-08T00:36:01;-1.50;99.90
59075;DHT22;44860;53.020;6.738;2023-02-08T00:38:28;-1.50;99.90
59075;DHT22;44860;53.020;6.738;2023-02-08T00:40:54;-1.50;99.90
59075;DHT22;44860;53.020;6.738;2023-02-08T00:43:19;-1.50;99.90
59075;DHT22;44860;53.020;6.738;2023-02-08T00:45:45;-1.50;99.90
59075;DHT22;44860;53.020;6.738;2023-02-08T00:48:11;-1.50;99.90
59075;DHT22;44860;53.020;6.738;2023-02-08T00:50:36;-1.50;99.90
59075;DHT22;44860;53.020;6.738;2023-02-08T00:53:02;-1.50;99.90
59075;DHT22;44860;53.020;6.738;2023-02-08T00:55:28;-1.50;99.90
59075;DHT22;44860;53.020;6.738;2023-02-08T00:57:53;-1.50;99.90
59075;DHT22;44860;53.020;6.738;2023-02-08T01:00:19;-1.50;99.90
59075;DHT22;44860;53.020;6.738;2023-02-08T01:02:45;-1.50;99.90
59075;DHT22;44860;53.020;6.738;2023-02-08T01:05:10;-1.50;99.90
59075;DHT22;44860;53.020;6.738;2023-02-08T01:07:37;-1.50;99.90
59075;DHT22;44860;53.020;6.738;2023-02-08T01:10:09;-1.50;99.90
59075;DHT22;44860;53.020;6.738;2023-02-08T01:12:37;-1.60;99.90
59075;DHT22;44860;53.020;6.738;2023-02-08T01:15:03;-1.60;99.90
59075;DHT22;44860;53.020;6.738;2023-02-08T01:17:29;-1.60;99.90
59075;DHT22;44860;53.020;6.738;2023-02-08T01:19:55;-1.60;99.90
59075;DHT22;44860;53.020;6.738;2023-02-08T01:22:21;-1.60;99.90
59075;DHT22;44860;53.020;6.738;2023-02-08T01:24:46;-1.70;99.90
59075;DHT22;44860;53.020;6.738;2023-02-08T01:27:12;-1.70;99.90
59075;DHT22;44860;53.020;6.738;2023-02-08T01:29:38;-1.70;99.90
59075;DHT22;44860;53.020;6.738;2023-02-08T01:32:03;-1.70;99.90
59075;DHT22;44860;53.020;6.738;2023-02-08T01:34:29;-1.70;99.90
59075;DHT22;44860;53.020;6.738;2023-02-08T01:36:55;-1.70;99.90
59075;DHT22;44860;53.020;6.738;2023-02-08T01:39:20;-1.70;99.90
59075;DHT22;44860;53.020;6.738;2023-02-08T01:41:46;-1.70;99.90
59075;DHT22;44860;53.020;6.738;2023-02-08T01:46:47;-1.70;99.90
59075;DHT22;44860;53.020;6.738;2023-02-08T01:49:28;-1.70;99.90
59075;DHT22;44860;53.020;6.738;2023-02-08T01:51:56;-1.70;99.90
59075;DHT22;44860;53.020;6.738;2023-02-08T01:54:25;-1.70;99.90
59075;DHT22;44860;53.020;6.738;2023-02-08T01:56:51;-1.80;99.90
59075;DHT22;44860;53.020;6.738;2023-02-08T01:59:26;-1.80;99.90
59075;DHT22;44860;53.020;6.738;2023-02-08T02:01:55;-1.80;99.90
59075;DHT22;44860;53.020;6.738;2023-02-08T02:04:22;-1.80;99.90
59075;DHT22;44860;53.020;6.738;2023-02-08T02:06:51;-1.70;99.90
59075;DHT22;44860;53.020;6.738;2023-02-08T02:09:41;-1.70;99.90
59075;DHT22;44860;53.020;6.738;2023-02-08T02:12:09;-1.80;99.90
59075;DHT22;44860;53.020;6.738;2023-02-08T02:14:36;-1.80;99.90
59075;DHT22;44860;53.020;6.738;2023-02-08T02:17:02;-1.80;99.90
59075;DHT22;44860;53.020;6.738;2023-02-08T02:28:47;-1.70;99.90
59075;DHT22;44860;53.020;6.738;2023-02-08T02:31:39;-1.70;99.90
59075;DHT22;44860;53.020;6.738;2023-02-08T02:39:27;-1.80;99.90
59075;DHT22;44860;53.020;6.738;2023-02-08T02:47:50;-1.90;99.90
59075;DHT22;44860;53.020;6.738;2023-02-08T02:50:35;-1.90;99.90
59075;DHT22;44860;53.020;6.738;2023-02-08T02:53:06;-1.90;99.90
59075;DHT22;44860;53.020;6.738;2023-02-08T02:55:41;-1.90;99.90
59075;DHT22;44860;53.020;6.738;2023-02-08T02:58:08;-1.90;99.90
59075;DHT22;44860;53.020;6.738;2023-02-08T03:00:35;-1.90;99.90
59075;DHT22;44860;53.020;6.738;2023-02-08T03:03:01;-1.90;99.90
59075;DHT22;44860;53.020;6.738;2023-02-08T03:05:28;-1.90;99.90
59075;DHT22;44860;53.020;6.738;2023-02-08T03:11:24;-2.00;99.90
59075;DHT22;44860;53.020;6.738;2023-02-08T03:19:31;-2.00;99.90
59075;DHT22;44860;53.020;6.738;2023-02-08T03:22:01;-2.00;99.90
59075;DHT22;44860;53.020;6.738;2023-02-08T03:27:09;-2.00;99.90
59075;DHT22;44860;53.020;6.738;2023-02-08T03:30:12;-2.00;99.90
59075;DHT22;44860;53.020;6.738;2023-02-08T03:32:45;-2.00;99.90
59075;DHT22;44860;53.020;6.738;2023-02-08T03:38:12;-2.10;99.90
59075;DHT22;44860;53.020;6.738;2023-02-08T03:40:48;-2.10;99.90
59075;DHT22;44860;53.020;6.738;2023-02-08T03:43:20;-2.10;99.90
59075;DHT22;44860;53.020;6.738;2023-02-08T03:46:03;-2.10;99.90
59075;DHT22;44860;53.020;6.738;2023-02-08T03:48:33;-2.10;99.90
59075;DHT22;44860;53.020;6.738;2023-02-08T03:51:01;-2.10;99.90
59075;DHT22;44860;53.020;6.738;2023-02-08T03:53:30;-2.10;99.90
59075;DHT22;44860;53.020;6.738;2023-02-08T03:56:07;-2.00;99.90
59075;DHT22;44860;53.020;6.738;2023-02-08T03:58:39;-2.10;99.90
59075;DHT22;44860;53.020;6.738;2023-02-08T04:01:16;-2.10;99.90
59075;DHT22;44860;53.020;6.738;2023-02-08T04:03:44;-2.10;99.90
59075;DHT22;44860;53.020;6.738;2023-02-08T04:06:13;-2.00;99.90
59075;DHT22;44860;53.020;6.738;2023-02-08T04:08:38;-2.10;99.90
59075;DHT22;44860;53.020;6.738;2023-02-08T04:11:04;-2.10;99.90
59075;DHT22;44860;53.020;6.738;2023-02-08T04:13:30;-2.00;99.90
59075;DHT22;44860;53.020;6.738;2023-02-08T04:15:56;-2.00;99.90
59075;DHT22;44860;53.020;6.738;2023-02-08T04:18:21;-2.00;99.90
59075;DHT22;44860;53.020;6.738;2023-02-08T04:20:47;-2.00;99.90
59075;DHT22;44860;53.020;6.738;2023-02-08T04:23:12;-2.00;99.90
59075;DHT22;44860;53.020;6.738;2023-02-08T04:25:38;-2.10;99.90
59075;DHT22;44860;53.020;6.738;2023-02-08T04:28:04;-2.10;99.90
59075;DHT22;44860;53.020;6.738;2023-02-08T04:30:29;-2.10;99.90
59075;DHT22;44860;53.020;6.738;2023-02-08T04:32:55;-2.10;99.90
59075;DHT22;44860;53.020;6.738;2023-02-08T04:35:21;-2.10;99.90
59075;DHT22;44860;53.020;6.738;2023-02-08T04:37:47;-2.10;99.90
59075;DHT22;44860;53.020;6.738;2023-02-08T04:40:12;-2.10;99.90
59075;DHT22;44860;53.020;6.738;2023-02-08T04:42:38;-2.10;99.90
59075;DHT22;44860;53.020;6.738;2023-02-08T04:45:04;-2.10;99.90
59075;DHT22;44860;53.020;6.738;2023-02-08T04:47:29;-2.10;99.90
59075;DHT22;44860;53.020;6.738;2023-02-08T04:49:55;-2.10;99.90
59075;DHT22;44860;53.020;6.738;2023-02-08T04:52:21;-2.20;99.90
59075;DHT22;44860;53.020;6.738;2023-02-08T04:54:46;-2.20;99.90
59075;DHT22;44860;53.020;6.738;2023-02-08T04:57:13;-2.10;99.90
59075;DHT22;44860;53.020;6.738;2023-02-08T04:59:39;-2.10;99.90
59075;DHT22;44860;53.020;6.738;2023-02-08T05:02:05;-2.10;99.90
59075;DHT22;44860;53.020;6.738;2023-02-08T05:04:31;-2.20;99.90
59075;DHT22;44860;53.020;6.738;2023-02-08T05:06:57;-2.20;99.90
59075;DHT22;44860;53.020;6.738;2023-02-08T05:09:23;-2.10;99.90
59075;DHT22;44860;53.020;6.738;2023-02-08T05:11:49;-2.10;99.90
59075;DHT22;44860;53.020;6.738;2023-02-08T05:14:14;-2.10;99.90
59075;DHT22;44860;53.020;6.738;2023-02-08T05:16:40;-2.10;99.90
59075;DHT22;44860;53.020;6.738;2023-02-08T05:19:06;-2.10;99.90
59075;DHT22;44860;53.020;6.738;2023-02-08T05:21:31;-2.10;99.90
59075;DHT22;44860;53.020;6.738;2023-02-08T05:23:57;-2.10;99.90
59075;DHT22;44860;53.020;6.738;2023-02-08T05:26:23;-2.10;99.90
59075;DHT22;44860;53.020;6.738;2023-02-08T05:28:48;-2.20;99.90
59075;DHT22;44860;53.020;6.738;2023-02-08T05:31:19;-2.20;99.90
59075;DHT22;44860;53.020;6.738;2023-02-08T05:33:45;-2.20;99.90
59075;DHT22;44860;53.020;6.738;2023-02-08T05:36:11;-2.20;99.90
59075;DHT22;44860;53.020;6.738;2023-02-08T05:38:36;-2.20;99.90
59075;DHT22;44860;53.020;6.738;2023-02-08T05:41:02;-2.20;99.90
59075;DHT22;44860;53.020;6.738;2023-02-08T05:43:28;-2.10;99.90
59075;DHT22;44860;53.020;6.738;2023-02-08T05:45:53;-2.10;99.90
59075;DHT22;44860;53.020;6.738;2023-02-08T05:48:19;-2.10;99.90
59075;DHT22;44860;53.020;6.738;2023-02-08T05:50:45;-2.10;99.90
59075;DHT22;44860;53.020;6.738;2023-02-08T05:53:10;-2.20;99.90
59075;DHT22;44860;53.020;6.738;2023-02-08T05:55:36;-2.20;99.90
59075;DHT22;44860;53.020;6.738;2023-02-08T05:58:02;-2.20;99.90
59075;DHT22;44860;53.020;6.738;2023-02-08T06:00:27;-2.20;99.90
59075;DHT22;44860;53.020;6.738;2023-02-08T06:02:53;-2.20;99.90
59075;DHT22;44860;53.020;6.738;2023-02-08T06:05:19;-2.20;99.90
59075;DHT22;44860;53.020;6.738;2023-02-08T06:07:44;-2.20;99.90
59075;DHT22;44860;53.020;6.738;2023-02-08T06:10:10;-2.20;99.90
59075;DHT22;44860;53.020;6.738;2023-02-08T06:12:36;-2.20;99.90
59075;DHT22;44860;53.020;6.738;2023-02-08T06:15:01;-2.20;99.90
59075;DHT22;44860;53.020;6.738;2023-02-08T06:17:27;-2.20;99.90
59075;DHT22;44860;53.020;6.738;2023-02-08T06:19:53;-2.20;99.90
59075;DHT22;44860;53.020;6.738;2023-02-08T06:22:18;-2.20;99.90
59075;DHT22;44860;53.020;6.738;2023-02-08T06:24:44;-2.20;99.90
59075;DHT22;44860;53.020;6.738;2023-02-08T06:27:10;-2.30;99.90
59075;DHT22;44860;53.020;6.738;2023-02-08T06:29:35;-2.30;99.90
59075;DHT22;44860;53.020;6.738;2023-02-08T06:32:01;-2.30;99.90
59075;DHT22;44860;53.020;6.738;2023-02-08T06:34:26;-2.30;99.90
59075;DHT22;44860;53.020;6.738;2023-02-08T06:36:53;-2.40;99.90
59075;DHT22;44860;53.020;6.738;2023-02-08T06:39:18;-2.30;99.90
59075;DHT22;44860;53.020;6.738;2023-02-08T06:41:44;-2.40;99.90
59075;DHT22;44860;53.020;6.738;2023-02-08T06:44:10;-2.40;99.90
59075;DHT22;44860;53.020;6.738;2023-02-08T06:46:35;-2.40;99.90
59075;DHT22;44860;53.020;6.738;2023-02-08T06:49:01;-2.40;99.90
59075;DHT22;44860;53.020;6.738;2023-02-08T06:51:27;-2.40;99.90
59075;DHT22;44860;53.020;6.738;2023-02-08T06:53:52;-2.30;99.90
59075;DHT22;44860;53.020;6.738;2023-02-08T06:56:18;-2.30;99.90
59075;DHT22;44860;53.020;6.738;2023-02-08T06:58:44;-2.30;99.90
59075;DHT22;44860;53.020;6.738;2023-02-08T07:01:12;-2.30;99.90
59075;DHT22;44860;53.020;6.738;2023-02-08T07:03:38;-2.40;99.90
59075;DHT22;44860;53.020;6.738;2023-02-08T07:06:03;-2.40;99.90
59075;DHT22;44860;53.020;6.738;2023-02-08T07:08:29;-2.40;99.90
59075;DHT22;44860;53.020;6.738;2023-02-08T07:10:55;-2.40;99.90
59075;DHT22;44860;53.020;6.738;2023-02-08T07:13:21;-2.40;99.90
59075;DHT22;44860;53.020;6.738;2023-02-08T07:15:46;-2.40;99.90
59075;DHT22;44860;53.020;6.738;2023-02-08T07:18:12;-2.50;99.90
59075;DHT22;44860;53.020;6.738;2023-02-08T07:20:38;-2.40;99.90
59075;DHT22;44860;53.020;6.738;2023-02-08T07:23:03;-2.40;99.90
59075;DHT22;44860;53.020;6.738;2023-02-08T07:25:29;-2.40;99.90
59075;DHT22;44860;53.020;6.738;2023-02-08T07:27:55;-2.40;99.90
59075;DHT22;44860;53.020;6.738;2023-02-08T07:30:20;-2.40;99.90
59075;DHT22;44860;53.020;6.738;2023-02-08T07:32:46;-2.40;99.90
59075;DHT22;44860;53.020;6.738;2023-02-08T07:35:11;-2.40;99.90
59075;DHT22;44860;53.020;6.738;2023-02-08T07:37:37;-2.30;99.90
59075;DHT22;44860;53.020;6.738;2023-02-08T07:40:03;-2.40;99.90
59075;DHT22;44860;53.020;6.738;2023-02-08T07:42:29;-2.40;99.90
59075;DHT22;44860;53.020;6.738;2023-02-08T07:44:54;-2.40;99.90
59075;DHT22;44860;53.020;6.738;2023-02-08T07:47:20;-2.50;99.90
59075;DHT22;44860;53.020;6.738;2023-02-08T07:49:46;-2.50;99.90
59075;DHT22;44860;53.020;6.738;2023-02-08T07:52:11;-2.50;99.90
59075;DHT22;44860;53.020;6.738;2023-02-08T07:54:37;-2.60;99.90
59075;DHT22;44860;53.020;6.738;2023-02-08T07:57:03;-2.60;99.90
59075;DHT22;44860;53.020;6.738;2023-02-08T07:59:28;-2.50;99.90
59075;DHT22;44860;53.020;6.738;2023-02-08T08:01:54;-2.50;99.90
59075;DHT22;44860;53.020;6.738;2023-02-08T08:04:19;-2.50;99.90
59075;DHT22;44860;53.020;6.738;2023-02-08T08:06:46;-2.50;99.90
59075;DHT22;44860;53.020;6.738;2023-02-08T08:09:12;-2.40;99.90
59075;DHT22;44860;53.020;6.738;2023-02-08T08:11:39;-2.40;99.90
59075;DHT22;44860;53.020;6.738;2023-02-08T08:14:05;-2.40;99.90
59075;DHT22;44860;53.020;6.738;2023-02-08T08:16:31;-2.30;99.90
59075;DHT22;44860;53.020;6.738;2023-02-08T08:18:56;-2.30;99.90
59075;DHT22;44860;53.020;6.738;2023-02-08T08:21:22;-2.30;99.90
59075;DHT22;44860;53.020;6.738;2023-02-08T08:23:47;-2.20;99.90
59075;DHT22;44860;53.020;6.738;2023-02-08T08:26:16;-2.10;99.90
59075;DHT22;44860;53.020;6.738;2023-02-08T08:28:42;-2.00;99.90
59075;DHT22;44860;53.020;6.738;2023-02-08T08:31:17;-2.00;99.90
59075;DHT22;44860;53.020;6.738;2023-02-08T08:33:44;-1.90;99.90
59075;DHT22;44860;53.020;6.738;2023-02-08T08:36:10;-1.80;99.90
59075;DHT22;44860;53.020;6.738;2023-02-08T08:38:36;-1.80;99.90
59075;DHT22;44860;53.020;6.738;2023-02-08T08:41:11;-1.70;99.90
59075;DHT22;44860;53.020;6.738;2023-02-08T08:43:37;-1.70;99.90
59075;DHT22;44860;53.020;6.738;2023-02-08T08:46:05;-1.60;99.90
59075;DHT22;44860;53.020;6.738;2023-02-08T08:48:32;-1.50;99.90
59075;DHT22;44860;53.020;6.738;2023-02-08T08:50:58;-1.50;99.90
59075;DHT22;44860;53.020;6.738;2023-02-08T08:53:23;-1.40;99.90
59075;DHT22;44860;53.020;6.738;2023-02-08T08:55:50;-1.30;99.90
59075;DHT22;44860;53.020;6.738;2023-02-08T08:58:15;-1.30;99.90
59075;DHT22;44860;53.020;6.738;2023-02-08T09:00:41;-1.20;99.90
59075;DHT22;44860;53.020;6.738;2023-02-08T09:03:07;-1.20;99.90
59075;DHT22;44860;53.020;6.738;2023-02-08T09:05:33;-1.20;99.90
59075;DHT22;44860;53.020;6.738;2023-02-08T09:07:59;-1.00;99.90
59075;DHT22;44860;53.020;6.738;2023-02-08T09:10:25;-1.00;99.90
59075;DHT22;44860;53.020;6.738;2023-02-08T09:12:51;-0.90;99.90
59075;DHT22;44860;53.020;6.738;2023-02-08T09:15:17;-0.90;99.90
59075;DHT22;44860;53.020;6.738;2023-02-08T09:17:43;-0.80;99.90
59075;DHT22;44860;53.020;6.738;2023-02-08T09:20:09;-0.70;99.90
59075;DHT22;44860;53.020;6.738;2023-02-08T09:22:35;-0.70;99.90
59075;DHT22;44860;53.020;6.738;2023-02-08T09:25:00;-0.60;99.90
59075;DHT22;44860;53.020;6.738;2023-02-08T09:27:27;-0.50;99.90
59075;DHT22;44860;53.020;6.738;2023-02-08T09:29:53;-0.50;99.90
59075;DHT22;44860;53.020;6.738;2023-02-08T09:32:19;-0.40;99.90
59075;DHT22;44860;53.020;6.738;2023-02-08T09:34:46;-0.40;99.90
59075;DHT22;44860;53.020;6.738;2023-02-08T09:37:12;-0.30;99.90
59075;DHT22;44860;53.020;6.738;2023-02-08T09:39:37;-0.20;99.90
59075;DHT22;44860;53.020;6.738;2023-02-08T09:42:18;-0.10;99.90
59075;DHT22;44860;53.020;6.738;2023-02-08T09:47:36;0.00;99.90
59075;DHT22;44860;53.020;6.738;2023-02-08T09:50:19;0.00;99.90
59075;DHT22;44860;53.020;6.738;2023-02-08T09:53:07;0.10;99.90
59075;DHT22;44860;53.020;6.738;2023-02-08T09:55:40;0.20;99.90
59075;DHT22;44860;53.020;6.738;2023-02-08T10:00:50;0.30;99.90
59075;DHT22;44860;53.020;6.738;2023-02-08T10:05:59;0.40;99.90
59075;DHT22;44860;53.020;6.738;2023-02-08T10:08:26;0.50;99.90
59075;DHT22;44860;53.020;6.738;2023-02-08T10:25:10;1.10;99.90
59075;DHT22;44860;53.020;6.738;2023-02-08T10:37:51;1.60;99.90
59075;DHT22;44860;53.020;6.738;2023-02-08T10:42:47;1.80;99.90
59075;DHT22;44860;53.020;6.738;2023-02-08T10:45:24;1.90;99.90
59075;DHT22;44860;53.020;6.738;2023-02-08T10:47:55;2.00;99.90
59075;DHT22;44860;53.020;6.738;2023-02-08T10:50:38;2.10;99.90
59075;DHT22;44860;53.020;6.738;2023-02-08T10:53:05;2.20;99.90
59075;DHT22;44860;53.020;6.738;2023-02-08T10:55:34;2.30;99.90
59075;DHT22;44860;53.020;6.738;2023-02-08T10:58:04;2.40;99.90
59075;DHT22;44860;53.020;6.738;2023-02-08T11:00:33;2.40;99.90
59075;DHT22;44860;53.020;6.738;2023-02-08T11:03:15;2.60;99.90
59075;DHT22;44860;53.020;6.738;2023-02-08T11:05:42;2.60;99.90
59075;DHT22;44860;53.020;6.738;2023-02-08T11:08:15;2.70;99.90
59075;DHT22;44860;53.020;6.738;2023-02-08T11:11:04;2.80;99.90
59075;DHT22;44860;53.020;6.738;2023-02-08T11:13:52;2.90;99.90
59075;DHT22;44860;53.020;6.738;2023-02-08T11:16:23;3.00;99.90
59075;DHT22;44860;53.020;6.738;2023-02-08T11:18:55;3.10;99.90
59075;DHT22;44860;53.020;6.738;2023-02-08T11:21:28;3.20;99.90
59075;DHT22;44860;53.020;6.738;2023-02-08T11:23:56;3.20;99.90
59075;DHT22;44860;53.020;6.738;2023-02-08T11:29:13;3.40;99.90
59075;DHT22;44860;53.020;6.738;2023-02-08T11:36:50;3.60;99.90
59075;DHT22;44860;53.020;6.738;2023-02-08T11:39:42;3.70;99.90
59075;DHT22;44860;53.020;6.738;2023-02-08T11:42:06;3.80;99.90
59075;DHT22;44860;53.020;6.738;2023-02-08T11:44:40;3.80;99.90
59075;DHT22;44860;53.020;6.738;2023-02-08T11:47:09;4.00;99.90
59075;DHT22;44860;53.020;6.738;2023-02-08T11:49:38;4.10;99.90
59075;DHT22;44860;53.020;6.738;2023-02-08T11:52:16;4.10;99.90
59075;DHT22;44860;53.020;6.738;2023-02-08T11:54:43;4.20;99.90
59075;DHT22;44860;53.020;6.738;2023-02-08T11:57:21;4.30;99.90
59075;DHT22;44860;53.020;6.738;2023-02-08T11:59:49;4.40;99.90
59075;DHT22;44860;53.020;6.738;2023-02-08T12:02:34;4.50;99.90
59075;DHT22;44860;53.020;6.738;2023-02-08T12:05:01;4.60;99.90
59075;DHT22;44860;53.020;6.738;2023-02-08T12:08:15;4.60;99.90
59075;DHT22;44860;53.020;6.738;2023-02-08T12:13:22;4.80;99.90
59075;DHT22;44860;53.020;6.738;2023-02-08T12:16:35;4.90;99.90
59075;DHT22;44860;53.020;6.738;2023-02-08T12:22:11;5.00;99.50
59075;DHT22;44860;53.020;6.738;2023-02-08T12:39:07;5.50;93.00
59075;DHT22;44860;53.020;6.738;2023-02-08T12:47:45;5.70;86.70
59075;DHT22;44860;53.020;6.738;2023-02-08T12:50:26;5.80;78.10
59075;DHT22;44860;53.020;6.738;2023-02-08T12:53:01;5.80;80.60
59075;DHT22;44860;53.020;6.738;2023-02-08T12:55:38;5.90;74.50
59075;DHT22;44860;53.020;6.738;2023-02-08T13:00:49;5.90;75.00
59075;DHT22;44860;53.020;6.738;2023-02-08T13:03:40;6.00;76.50
59075;DHT22;44860;53.020;6.738;2023-02-08T13:06:14;6.00;77.90
59075;DHT22;44860;53.020;6.738;2023-02-08T13:13:55;6.20;78.60
59075;DHT22;44860;53.020;6.738;2023-02-08T13:16:30;6.20;75.50
59075;DHT22;44860;53.020;6.738;2023-02-08T13:19:26;6.30;73.40
59075;DHT22;44860;53.020;6.738;2023-02-08T13:21:53;6.30;73.70
59075;DHT22;44860;53.020;6.738;2023-02-08T13:24:35;6.40;71.80
59075;DHT22;44860;53.020;6.738;2023-02-08T13:27:02;6.40;76.10
59075;DHT22;44860;53.020;6.738;2023-02-08T13:29:31;6.50;79.90
59075;DHT22;44860;53.020;6.738;2023-02-08T13:37:27;6.60;78.10
59075;DHT22;44860;53.020;6.738;2023-02-08T13:43:13;6.70;75.90
59075;DHT22;44860;53.020;6.738;2023-02-08T13:48:13;6.80;74.60
59075;DHT22;44860;53.020;6.738;2023-02-08T13:50:46;6.80;72.20
59075;DHT22;44860;53.020;6.738;2023-02-08T13:53:13;6.90;66.80
59075;DHT22;44860;53.020;6.738;2023-02-08T14:01:20;6.80;61.80
59075;DHT22;44860;53.020;6.738;2023-02-08T14:09:44;6.80;57.10
59075;DHT22;44860;53.020;6.738;2023-02-08T14:12:35;6.70;57.40
59075;DHT22;44860;53.020;6.738;2023-02-08T14:17:47;6.60;57.10
59075;DHT22;44860;53.020;6.738;2023-02-08T14:20:20;6.70;54.90
59075;DHT22;44860;53.020;6.738;2023-02-08T14:22:51;6.70;52.70
59075;DHT22;44860;53.020;6.738;2023-02-08T14:25:23;6.60;54.00
59075;DHT22;44860;53.020;6.738;2023-02-08T14:27:54;6.60;57.30
59075;DHT22;44860;53.020;6.738;2023-02-08T14:30:22;6.60;58.10
59075;DHT22;44860;53.020;6.738;2023-02-08T14:35:34;6.60;59.60
59075;DHT22;44860;53.020;6.738;2023-02-08T14:40:54;6.50;59.00
59075;DHT22;44860;53.020;6.738;2023-02-08T14:43:38;6.50;59.60
59075;DHT22;44860;53.020;6.738;2023-02-08T14:49:15;6.50;57.40
59075;DHT22;44860;53.020;6.738;2023-02-08T14:51:51;6.50;57.50
59075;DHT22;44860;53.020;6.738;2023-02-08T14:57:30;6.40;60.00
59075;DHT22;44860;53.020;6.738;2023-02-08T15:00:06;6.40;61.30
59075;DHT22;44860;53.020;6.738;2023-02-08T15:02:33;6.30;62.40
59075;DHT22;44860;53.020;6.738;2023-02-08T15:05:01;6.30;64.10
59075;DHT22;44860;53.020;6.738;2023-02-08T15:07:52;6.30;64.70
59075;DHT22;44860;53.020;6.738;2023-02-08T15:10:20;6.30;67.10
59075;DHT22;44860;53.020;6.738;2023-02-08T15:12:50;6.20;69.30
59075;DHT22;44860;53.020;6.738;2023-02-08T15:17:52;6.20;71.00
59075;DHT22;44860;53.020;6.738;2023-02-08T15:20:26;6.10;73.60
59075;DHT22;44860;53.020;6.738;2023-02-08T15:23:20;6.10;74.50
59075;DHT22;44860;53.020;6.738;2023-02-08T15:26:01;6.00;76.30
59075;DHT22;44860;53.020;6.738;2023-02-08T15:28:29;6.00;76.90
59075;DHT22;44860;53.020;6.738;2023-02-08T15:31:04;6.00;73.60
59075;DHT22;44860;53.020;6.738;2023-02-08T15:33:31;5.90;72.50
59075;DHT22;44860;53.020;6.738;2023-02-08T15:36:02;5.90;75.00
59075;DHT22;44860;53.020;6.738;2023-02-08T15:38:29;5.80;75.90
59075;DHT22;44860;53.020;6.738;2023-02-08T15:41:29;5.80;76.20
59075;DHT22;44860;53.020;6.738;2023-02-08T15:44:19;5.70;77.70
59075;DHT22;44860;53.020;6.738;2023-02-08T15:46:47;5.70;76.80
59075;DHT22;44860;53.020;6.738;2023-02-08T15:49:23;5.60;76.90
59075;DHT22;44860;53.020;6.738;2023-02-08T15:51:52;5.60;75.50
59075;DHT22;44860;53.020;6.738;2023-02-08T15:54:21;5.50;76.30
59075;DHT22;44860;53.020;6.738;2023-02-08T15:57:06;5.40;79.40
59075;DHT22;44860;53.020;6.738;2023-02-08T15:59:34;5.40;81.10
59075;DHT22;44860;53.020;6.738;2023-02-08T16:02:32;5.30;82.70
59075;DHT22;44860;53.020;6.738;2023-02-08T16:05:00;5.20;82.50
59075;DHT22;44860;53.020;6.738;2023-02-08T16:07:33;5.20;85.20
59075;DHT22;44860;53.020;6.738;2023-02-08T16:09:59;5.10;86.00
59075;DHT22;44860;53.020;6.738;2023-02-08T16:12:26;5.00;87.30
59075;DHT22;44860;53.020;6.738;2023-02-08T16:14:53;4.90;87.80
59075;DHT22;44860;53.020;6.738;2023-02-08T16:17:41;4.90;88.50
59075;DHT22;44860;53.020;6.738;2023-02-08T16:20:25;4.80;88.90
59075;DHT22;44860;53.020;6.738;2023-02-08T16:22:55;4.70;90.40
59075;DHT22;44860;53.020;6.738;2023-02-08T16:25:23;4.50;92.20
59075;DHT22;44860;53.020;6.738;2023-02-08T16:27:49;4.40;93.10
59075;DHT22;44860;53.020;6.738;2023-02-08T16:30:19;4.30;93.60
59075;DHT22;44860;53.020;6.738;2023-02-08T16:32:45;4.20;94.00
59075;DHT22;44860;53.020;6.738;2023-02-08T16:35:23;4.10;94.80
59075;DHT22;44860;53.020;6.738;2023-02-08T16:37:56;4.00;95.60
59075;DHT22;44860;53.020;6.738;2023-02-08T16:40:44;3.80;96.70
59075;DHT22;44860;53.020;6.738;2023-02-08T16:43:40;3.70;97.50
59075;DHT22;44860;53.020;6.738;2023-02-08T16:46:15;3.60;98.10
59075;DHT22;44860;53.020;6.738;2023-02-08T16:48:47;3.40;98.80
59075;DHT22;44860;53.020;6.738;2023-02-08T16:51:16;3.40;99.40
59075;DHT22;44860;53.020;6.738;2023-02-08T16:53:43;3.30;99.60
59075;DHT22;44860;53.020;6.738;2023-02-08T16:56:11;3.20;99.90
59075;DHT22;44860;53.020;6.738;2023-02-08T16:58:37;3.20;99.90
59075;DHT22;44860;53.020;6.738;2023-02-08T17:01:03;3.10;99.90
59075;DHT22;44860;53.020;6.738;2023-02-08T17:03:28;3.00;99.90
59075;DHT22;44860;53.020;6.738;2023-02-08T17:05:55;2.90;99.90
59075;DHT22;44860;53.020;6.738;2023-02-08T17:08:20;2.80;99.90
59075;DHT22;44860;53.020;6.738;2023-02-08T17:10:47;2.70;99.90
59075;DHT22;44860;53.020;6.738;2023-02-08T17:13:17;2.60;99.90
59075;DHT22;44860;53.020;6.738;2023-02-08T17:15:44;2.50;99.90
59075;DHT22;44860;53.020;6.738;2023-02-08T17:18:11;2.40;99.90
59075;DHT22;44860;53.020;6.738;2023-02-08T17:20:37;2.40;99.90
59075;DHT22;44860;53.020;6.738;2023-02-08T17:23:04;2.30;99.90
59075;DHT22;44860;53.020;6.738;2023-02-08T17:25:31;2.30;99.90
59075;DHT22;44860;53.020;6.738;2023-02-08T17:28:00;2.30;99.90
59075;DHT22;44860;53.020;6.738;2023-02-08T17:30:34;2.20;99.90
59075;DHT22;44860;53.020;6.738;2023-02-08T17:33:02;2.20;99.90
59075;DHT22;44860;53.020;6.738;2023-02-08T17:35:29;2.10;99.90
59075;DHT22;44860;53.020;6.738;2023-02-08T17:37:56;2.10;99.90
59075;DHT22;44860;53.020;6.738;2023-02-08T17:40:25;2.00;99.90
59075;DHT22;44860;53.020;6.738;2023-02-08T17:42:54;2.00;99.90
59075;DHT22;44860;53.020;6.738;2023-02-08T17:45:20;1.90;99.90
59075;DHT22;44860;53.020;6.738;2023-02-08T17:47:45;1.80;99.90
59075;DHT22;44860;53.020;6.738;2023-02-08T17:50:14;1.80;99.90
59075;DHT22;44860;53.020;6.738;2023-02-08T17:52:40;1.70;99.90
59075;DHT22;44860;53.020;6.738;2023-02-08T17:55:08;1.60;99.90
59075;DHT22;44860;53.020;6.738;2023-02-08T17:57:36;1.60;99.90
59075;DHT22;44860;53.020;6.738;2023-02-08T18:00:06;1.60;99.90
59075;DHT22;44860;53.020;6.738;2023-02-08T18:02:34;1.60;99.90
59075;DHT22;44860;53.020;6.738;2023-02-08T18:05:00;1.60;99.90
59075;DHT22;44860;53.020;6.738;2023-02-08T18:07:26;1.50;99.90
59075;DHT22;44860;53.020;6.738;2023-02-08T18:09:52;1.50;99.90
59075;DHT22;44860;53.020;6.738;2023-02-08T18:12:17;1.50;99.90
59075;DHT22;44860;53.020;6.738;2023-02-08T18:14:43;1.50;99.90
59075;DHT22;44860;53.020;6.738;2023-02-08T18:17:09;1.50;99.90
59075;DHT22;44860;53.020;6.738;2023-02-08T18:19:35;1.60;99.90
59075;DHT22;44860;53.020;6.738;2023-02-08T18:22:00;1.60;99.90
59075;DHT22;44860;53.020;6.738;2023-02-08T18:24:29;1.70;99.90
59075;DHT22;44860;53.020;6.738;2023-02-08T18:26:56;1.70;99.90